createdAt,value
2022-08-03T11:24:58.341Z,24.10
2022-08-03T11:27:23.549Z,24.00
2022-08-03T11:29:32.594Z,24.00
2022-08-03T11:31:58.664Z,23.90
2022-08-03T11:34:08.506Z,24.00
2022-08-03T11:36:32.562Z,23.80
2022-08-03T11:39:16.734Z,23.90
2022-08-03T11:41:43.271Z,23.80
2022-08-03T11:43:54.734Z,23.50
2022-08-03T11:46:04.560Z,23.30
2022-08-03T11:48:17.567Z,23.30
2022-08-03T11:50:26.404Z,23.30
2022-08-03T11:52:43.120Z,23.30
2022-08-03T11:54:56.689Z,23.60
2022-08-03T11:57:05.701Z,23.60
2022-08-03T11:59:20.543Z,23.80
2022-08-03T12:01:31.604Z,23.60
2022-08-03T12:03:40.153Z,23.70
2022-08-03T12:05:52.227Z,24.10
2022-08-03T12:08:03.642Z,24.40
2022-08-03T12:10:15.728Z,24.40
2022-08-03T12:12:24.065Z,24.50
2022-08-03T12:14:49.164Z,24.20
2022-08-03T12:16:59.921Z,24.30
2022-08-03T12:19:08.480Z,24.40
2022-08-03T12:21:18.602Z,24.30
2022-08-03T12:23:28.996Z,24.30
2022-08-03T12:25:40.061Z,24.10
2022-08-03T12:27:48.379Z,24.20
2022-08-03T12:29:59.933Z,24.20
2022-08-03T12:32:08.291Z,24.40
2022-08-03T12:34:17.219Z,24.60
2022-08-03T12:36:25.559Z,24.90
2022-08-03T12:38:36.452Z,25.20
2022-08-03T12:40:56.265Z,25.50
2022-08-03T12:43:12.874Z,25.20
2022-08-03T12:45:24.952Z,25.30
2022-08-03T12:47:52.055Z,25.10
2022-08-03T12:50:00.283Z,25.00
2022-08-03T12:52:08.842Z,25.00
2022-08-03T12:54:19.030Z,25.10
2022-08-03T12:56:35.614Z,25.10
2022-08-03T12:58:44.516Z,24.90
2022-08-03T13:00:58.253Z,25.00
2022-08-03T13:03:39.220Z,25.10
2022-08-03T13:05:44.813Z,24.90
2022-08-03T13:07:53.176Z,25.50
2022-08-03T13:10:06.217Z,25.20
2022-08-03T13:12:17.657Z,25.30
2022-08-03T13:14:25.853Z,25.50
2022-08-03T13:16:35.628Z,25.60
2022-08-03T13:18:46.502Z,25.60
2022-08-03T13:20:56.409Z,25.60
2022-08-03T13:23:04.684Z,25.40
2022-08-03T13:25:13.010Z,25.60
2022-08-03T13:28:04.229Z,25.80
2022-08-03T13:29:49.721Z,25.60
2022-08-03T13:31:59.382Z,25.30
2022-08-03T13:34:07.671Z,25.40
2022-08-03T13:36:15.951Z,25.50
2022-08-03T13:38:27.132Z,25.30
2022-08-03T13:40:41.534Z,25.00
2022-08-03T13:42:50.207Z,24.80
2022-08-03T13:44:58.726Z,24.60
2022-08-03T14:16:22.598Z,25.20
2022-08-03T14:18:33.526Z,24.90
2022-08-03T14:20:49.023Z,24.70
2022-08-03T14:23:02.670Z,24.40
2022-08-03T14:25:11.201Z,24.60
2022-08-03T14:27:22.114Z,24.70
2022-08-03T14:29:30.521Z,24.80
2022-08-03T14:32:10.439Z,25.30
2022-08-03T14:34:08.408Z,25.70
2022-08-03T14:36:16.584Z,26.10
2022-08-03T14:38:25.233Z,26.20
2022-08-03T14:40:33.620Z,25.80
2022-08-03T14:42:41.846Z,25.50
2022-08-03T14:44:50.153Z,25.60
2022-08-03T14:46:59.712Z,26.00
2022-08-03T14:50:30.064Z,25.70
2022-08-03T14:51:36.185Z,25.70
2022-08-03T14:53:44.496Z,25.90
2022-08-03T14:55:53.527Z,26.20
2022-08-03T14:58:05.627Z,26.50
2022-08-03T15:00:28.731Z,26.60
2022-08-03T15:02:40.498Z,26.50
2022-08-03T15:04:48.803Z,26.40
2022-08-03T15:06:57.090Z,26.40
2022-08-03T15:09:22.472Z,26.60
2022-08-03T15:11:31.677Z,26.70
2022-08-03T15:13:39.867Z,26.50
2022-08-03T15:15:49.642Z,26.30
2022-08-03T15:18:00.048Z,26.60
2022-08-03T15:20:27.739Z,26.30
2022-08-03T15:22:41.084Z,26.50
2022-08-03T15:24:49.445Z,26.30
2022-08-03T15:26:57.646Z,25.50
2022-08-03T15:29:05.822Z,25.20
2022-08-03T15:31:14.049Z,25.20
2022-08-03T15:33:29.245Z,25.00
2022-08-03T15:35:37.486Z,25.00
2022-08-03T15:37:46.409Z,25.90
2022-08-03T15:39:59.218Z,26.10
2022-08-03T15:42:08.895Z,25.90
2022-08-03T15:44:20.675Z,25.90
2022-08-03T15:46:29.905Z,26.10
2022-08-03T15:48:39.935Z,25.50
2022-08-03T15:50:48.195Z,25.10
2022-08-03T15:52:57.676Z,24.40
2022-08-03T15:55:06.593Z,24.20
2022-08-03T15:57:14.815Z,24.20
2022-08-03T15:59:23.039Z,24.10
2022-08-03T16:01:31.381Z,24.00
2022-08-03T16:03:40.999Z,24.00
2022-08-03T16:05:49.217Z,23.90
2022-08-03T16:08:04.079Z,23.70
2022-08-03T16:10:13.993Z,23.80
2022-08-03T16:12:22.230Z,23.70
2022-08-03T16:14:34.509Z,23.80
2022-08-03T16:16:48.680Z,23.80
2022-08-03T16:18:58.404Z,23.70
2022-08-03T16:21:10.899Z,23.60
2022-08-03T16:23:23.800Z,23.50
2022-08-03T16:25:37.697Z,23.40
2022-08-03T16:28:07.388Z,23.40
2022-08-03T16:30:16.859Z,23.40
2022-08-03T16:32:25.091Z,23.40
2022-08-03T16:34:34.767Z,23.40
2022-08-03T16:36:43.037Z,23.20
2022-08-03T16:38:51.411Z,23.40
2022-08-03T16:40:59.872Z,23.70
2022-08-03T16:43:18.422Z,23.70
2022-08-03T16:45:27.428Z,23.50
2022-08-03T16:47:35.742Z,23.30
2022-08-03T16:49:54.093Z,23.20
2022-08-03T16:52:04.608Z,23.10
2022-08-03T16:54:13.964Z,23.10
2022-08-03T16:56:22.829Z,23.40
2022-08-03T16:58:41.525Z,23.50
2022-08-03T17:00:51.162Z,23.30
2022-08-03T17:03:00.835Z,23.10
2022-08-03T17:05:14.232Z,23.00
2022-08-03T17:07:23.680Z,23.00
2022-08-03T17:09:38.295Z,23.00
2022-08-03T17:11:48.517Z,23.00
2022-08-03T17:13:57.375Z,22.90
2022-08-03T17:16:08.753Z,22.80
2022-08-03T17:18:19.338Z,22.60
2022-08-03T17:20:33.671Z,22.60
2022-08-03T17:23:02.223Z,22.60
2022-08-03T17:25:22.111Z,22.50
2022-08-03T17:28:49.289Z,22.50
2022-08-03T17:30:13.620Z,22.40
2022-08-03T17:32:22.002Z,22.30
2022-08-03T17:34:33.132Z,22.30
2022-08-03T17:39:17.286Z,22.20
2022-08-03T17:41:27.680Z,22.20
2022-08-03T17:44:16.465Z,22.10
2022-08-03T17:46:12.190Z,22.20
2022-08-03T17:48:20.762Z,22.20
2022-08-03T17:50:41.920Z,22.20
2022-08-03T17:52:57.458Z,22.10
2022-08-03T17:55:54.917Z,22.10
2022-08-03T17:58:02.583Z,22.00
2022-08-03T18:00:31.696Z,22.00
2022-08-03T18:03:05.462Z,22.00
2022-08-03T18:07:47.174Z,21.90
2022-08-03T18:10:05.862Z,21.80
2022-08-03T18:12:28.165Z,21.90
2022-08-03T18:14:57.741Z,21.90
2022-08-03T18:17:15.708Z,21.80
2022-08-03T18:20:03.237Z,21.80
2022-08-03T18:22:03.107Z,21.80
2022-08-03T18:24:12.922Z,21.80
2022-08-03T18:26:25.020Z,21.80
2022-08-03T18:28:33.490Z,21.80
2022-08-03T18:30:54.194Z,21.70
2022-08-03T18:34:16.746Z,21.70
2022-08-03T18:35:53.792Z,21.70
2022-08-03T18:38:01.287Z,21.60
2022-08-03T18:40:10.513Z,21.70
2022-08-03T18:42:25.845Z,21.70
2022-08-03T18:44:53.081Z,21.60
2022-08-03T18:47:17.137Z,21.60
2022-08-03T18:49:41.542Z,21.60
2022-08-03T18:51:54.998Z,21.60
2022-08-03T18:54:09.716Z,21.60
2022-08-03T18:56:45.038Z,21.60
2022-08-03T18:59:02.431Z,21.60
2022-08-03T19:01:59.581Z,21.50
2022-08-03T19:03:50.785Z,21.50
2022-08-03T19:06:13.251Z,21.50
2022-08-03T19:08:28.595Z,21.50
2022-08-03T19:10:39.126Z,21.40
2022-08-03T19:12:52.604Z,21.50
2022-08-03T19:15:10.360Z,21.50
2022-08-03T19:17:22.733Z,21.50
2022-08-03T19:19:44.209Z,21.40
2022-08-03T19:21:54.378Z,21.40
2022-08-03T19:24:09.498Z,21.40
2022-08-03T19:26:30.496Z,21.40
2022-08-03T19:28:41.705Z,21.40
2022-08-03T19:30:55.384Z,21.40
2022-08-03T19:33:04.735Z,21.30
2022-08-03T19:35:18.988Z,21.30
2022-08-03T19:37:45.541Z,21.30
2022-08-03T19:39:56.502Z,21.20
2022-08-03T19:42:12.174Z,21.20
2022-08-03T19:44:32.263Z,21.20
2022-08-03T19:46:50.825Z,21.20
2022-08-03T19:49:04.373Z,21.20
2022-08-03T19:51:19.008Z,21.20
2022-08-03T19:53:42.790Z,21.20
2022-08-03T19:55:58.237Z,21.20
2022-08-03T19:58:09.263Z,21.10
2022-08-03T20:00:32.723Z,21.10
2022-08-03T20:02:50.884Z,21.10
2022-08-03T20:05:00.562Z,21.10
2022-08-03T20:07:08.864Z,21.10
2022-08-03T20:09:18.268Z,21.10
2022-08-03T20:11:28.626Z,21.10
2022-08-03T20:13:39.101Z,21.10
2022-08-03T20:15:47.569Z,21.00
2022-08-03T20:18:03.785Z,21.00
2022-08-03T20:20:13.493Z,21.00
2022-08-03T20:22:27.866Z,21.00
2022-08-03T20:24:37.770Z,21.00
2022-08-03T20:26:53.364Z,21.00
2022-08-03T20:29:06.079Z,21.00
2022-08-03T20:31:18.896Z,21.00
2022-08-03T20:33:45.909Z,21.00
2022-08-03T20:35:57.189Z,20.90
2022-08-03T20:38:06.836Z,20.90
2022-08-03T20:40:15.081Z,20.90
2022-08-03T20:42:23.718Z,20.90
2022-08-03T20:44:32.320Z,20.80
2022-08-03T20:46:53.093Z,20.80
2022-08-03T20:49:09.927Z,20.80
2022-08-03T20:51:49.015Z,20.80
2022-08-03T20:54:00.219Z,20.80
2022-08-03T20:56:10.774Z,20.80
2022-08-03T20:58:23.890Z,20.80
2022-08-03T21:00:32.454Z,20.70
2022-08-03T21:02:41.281Z,20.70
2022-08-03T21:04:51.115Z,20.60
2022-08-03T21:07:03.782Z,20.60
2022-08-03T21:09:33.570Z,20.60
2022-08-03T21:11:51.186Z,20.60
2022-08-03T21:12:56.493Z,21.90
2022-08-03T21:14:03.727Z,20.50
2022-08-03T21:16:15.154Z,20.50
2022-08-03T21:18:24.641Z,20.50
2022-08-03T21:20:36.172Z,20.40
2022-08-03T21:22:50.528Z,20.40
2022-08-03T21:25:03.722Z,20.40
2022-08-03T21:27:12.872Z,20.30
2022-08-03T21:29:21.691Z,20.30
2022-08-03T21:31:30.180Z,20.20
2022-08-03T21:33:38.772Z,20.10
2022-08-03T21:35:50.573Z,20.10
2022-08-03T21:38:16.483Z,20.00
2022-08-03T21:40:24.689Z,19.90
2022-08-03T21:42:32.979Z,19.80
2022-08-03T21:44:41.289Z,19.70
2022-08-03T21:46:50.830Z,19.60
2022-08-03T21:50:04.119Z,19.60
2022-08-03T21:51:34.067Z,19.60
2022-08-03T21:54:03.151Z,19.60
2022-08-03T21:56:14.239Z,19.50
2022-08-03T21:58:29.614Z,19.50
2022-08-03T22:00:38.171Z,19.50
2022-08-03T22:02:54.484Z,19.50
2022-08-03T22:05:04.810Z,19.60
2022-08-03T22:07:15.383Z,19.60
2022-08-03T22:09:23.879Z,19.60
2022-08-03T22:11:32.499Z,19.50
2022-08-03T22:13:43.043Z,19.50
2022-08-03T22:15:51.811Z,19.50
2022-08-03T22:18:03.642Z,19.40
2022-08-03T22:20:14.456Z,19.30
2022-08-03T22:22:25.930Z,19.20
2022-08-03T22:24:37.120Z,19.30
2022-08-03T22:27:05.832Z,19.30
2022-08-03T22:29:14.212Z,19.30
2022-08-03T22:31:57.114Z,19.20
2022-08-03T22:33:52.676Z,19.30
2022-08-03T22:36:05.002Z,19.30
2022-08-03T22:38:14.662Z,19.30
2022-08-03T22:40:22.971Z,19.40
2022-08-03T22:42:31.793Z,19.40
2022-08-03T22:44:41.595Z,19.50
2022-08-03T22:46:50.018Z,19.40
2022-08-03T22:48:59.237Z,19.30
2022-08-03T22:51:07.699Z,19.20
2022-08-03T22:53:21.746Z,19.20
2022-08-03T22:55:30.301Z,19.30
2022-08-03T22:57:38.703Z,19.30
2022-08-03T22:59:47.535Z,19.40
2022-08-03T23:01:59.944Z,19.50
2022-08-03T23:04:09.873Z,19.50
2022-08-03T23:06:22.320Z,19.50
2022-08-03T23:08:34.401Z,19.50
2022-08-03T23:10:46.981Z,19.50
2022-08-03T23:12:56.811Z,19.50
2022-08-03T23:15:08.531Z,19.50
2022-08-03T23:17:18.208Z,19.60
2022-08-03T23:19:30.211Z,19.50
2022-08-03T23:22:00.218Z,19.50
2022-08-03T23:24:29.349Z,19.50
2022-08-03T23:26:39.146Z,19.50
2022-08-03T23:28:52.065Z,19.50
2022-08-03T23:31:01.202Z,19.50
2022-08-03T23:33:10.479Z,19.50
2022-08-03T23:36:28.256Z,19.50
2022-08-03T23:38:21.656Z,19.60
2022-08-03T23:40:34.139Z,19.60
2022-08-03T23:42:45.425Z,19.60
2022-08-03T23:44:56.595Z,19.60
2022-08-03T23:47:07.651Z,19.60
2022-08-03T23:49:15.871Z,19.60
2022-08-03T23:51:34.499Z,19.50
2022-08-03T23:53:48.650Z,19.50
2022-08-03T23:56:11.247Z,19.40
2022-08-03T23:58:32.749Z,19.40
